Time,TemperatureF,DewpointF,PressureIn,WindDirection,WindDirectionDegrees,WindSpeedMPH,WindSpeedGustMPH,Humidity,HourlyPrecipIn,Conditions,Clouds,dailyrainin,SoftwareType,DateUTC
2013-06-22 00:03:00,66.9,55.0,30.21,SE,141,0.0,0.0,65,0.00,,,0.00,weatherlink.com 1.10,2013-06-22 04:03:00,
2013-06-22 00:18:00,66.5,54.0,30.21,SW,236,0.0,0.0,65,0.00,,,0.00,weatherlink.com 1.10,2013-06-22 04:18:00,
2013-06-22 00:33:00,65.9,55.0,30.21,West,269,0.0,0.0,67,0.00,,,0.00,weatherlink.com 1.10,2013-06-22 04:33:00,
2013-06-22 00:48:00,65.5,55.0,30.20,West,269,0.0,0.0,68,0.00,,,0.00,weatherlink.com 1.10,2013-06-22 04:48:00,
2013-06-22 01:03:00,65.0,54.0,30.20,West,269,0.0,0.0,68,0.00,,,0.00,weatherlink.com 1.10,2013-06-22 05:03:00,
2013-06-22 01:18:00,64.6,54.0,30.20,West,269,0.0,0.0,69,0.00,,,0.00,weatherlink.com 1.10,2013-06-22 05:18:00,
2013-06-22 01:33:00,64.1,54.0,30.20,West,271,0.0,0.0,69,0.00,,,0.00,weatherlink.com 1.10,2013-06-22 05:33:00,
2013-06-22 01:48:00,63.8,54.0,30.19,West,270,0.0,0.0,70,0.00,,,0.00,weatherlink.com 1.10,2013-06-22 05:48:00,
2013-06-22 02:03:00,63.4,53.0,30.19,West,270,0.0,1.0,70,0.00,,,0.00,weatherlink.com 1.10,2013-06-22 06:03:00,
2013-06-22 02:18:00,63.0,54.0,30.19,West,271,0.0,1.0,72,0.00,,,0.00,weatherlink.com 1.10,2013-06-22 06:18:00,
2013-06-22 02:33:00,62.5,53.0,30.20,West,271,0.0,0.0,72,0.00,,,0.00,weatherlink.com 1.10,2013-06-22 06:33:00,
2013-06-22 02:48:00,62.2,54.0,30.20,West,271,0.0,0.0,74,0.00,,,0.00,weatherlink.com 1.10,2013-06-22 06:48:00,
2013-06-22 03:03:00,61.7,54.0,30.20,West,271,0.0,0.0,75,0.00,,,0.00,weatherlink.com 1.10,2013-06-22 07:03:00,
2013-06-22 03:18:00,61.2,54.0,30.20,West,271,0.0,0.0,77,0.00,,,0.00,weatherlink.com 1.10,2013-06-22 07:18:00,
2013-06-22 03:33:00,60.6,54.0,30.20,West,271,0.0,0.0,79,0.00,,,0.00,weatherlink.com 1.10,2013-06-22 07:33:00,
2013-06-22 03:48:00,60.2,54.0,30.19,West,271,0.0,0.0,80,0.00,,,0.00,weatherlink.com 1.10,2013-06-22 07:48:00,
2013-06-22 04:03:00,59.7,54.0,30.19,West,271,0.0,0.0,81,0.00,,,0.00,weatherlink.com 1.10,2013-06-22 08:03:00,
2013-06-22 04:19:00,59.4,54.0,30.19,West,271,0.0,0.0,82,0.00,,,0.00,weatherlink.com 1.10,2013-06-22 08:19:00,
2013-06-22 04:34:00,58.9,54.0,30.19,West,271,0.0,0.0,83,0.00,,,0.00,weatherlink.com 1.10,2013-06-22 08:34:00,
2013-06-22 04:49:00,58.4,54.0,30.19,West,271,0.0,0.0,84,0.00,,,0.00,weatherlink.com 1.10,2013-06-22 08:49:00,
2013-06-22 05:04:00,58.1,54.0,30.19,West,271,0.0,0.0,85,0.00,,,0.00,weatherlink.com 1.10,2013-06-22 09:04:00,
2013-06-22 05:19:00,57.8,54.0,30.20,West,271,0.0,0.0,86,0.00,,,0.00,weatherlink.com 1.10,2013-06-22 09:19:00,
2013-06-22 05:34:00,57.6,54.0,30.21,West,271,0.0,0.0,87,0.00,,,0.00,weatherlink.com 1.10,2013-06-22 09:34:00,
2013-06-22 05:49:00,57.5,54.0,30.21,NE,46,0.0,0.0,87,0.00,,,0.00,weatherlink.com 1.10,2013-06-22 09:49:00,
2013-06-22 06:04:00,57.6,54.0,30.21,NE,46,0.0,0.0,88,0.00,,,0.00,weatherlink.com 1.10,2013-06-22 10:04:00,
2013-06-22 06:19:00,57.8,55.0,30.20,NE,46,0.0,0.0,89,0.00,,,0.00,weatherlink.com 1.10,2013-06-22 10:19:00,
2013-06-22 06:34:00,58.0,55.0,30.20,NE,46,0.0,0.0,89,0.00,,,0.00,weatherlink.com 1.10,2013-06-22 10:34:00,
2013-06-22 06:49:00,58.5,56.0,30.20,NE,46,0.0,0.0,90,0.00,,,0.00,weatherlink.com 1.10,2013-06-22 10:49:00,
2013-06-22 07:04:00,59.1,57.0,30.20,ENE,72,0.0,0.0,91,0.00,,,0.00,weatherlink.com 1.10,2013-06-22 11:04:00,
2013-06-22 07:19:00,60.7,58.0,30.19,WSW,249,0.0,1.0,91,0.00,,,0.00,weatherlink.com 1.10,2013-06-22 11:19:00,
2013-06-22 07:34:00,62.2,59.0,30.19,West,259,0.0,1.0,88,0.00,,,0.00,weatherlink.com 1.10,2013-06-22 11:34:00,
2013-06-22 07:49:00,63.8,59.0,30.20,WNW,299,4.0,4.0,84,0.00,,,0.00,weatherlink.com 1.10,2013-06-22 11:49:00,
2013-06-22 08:04:00,65.3,59.0,30.20,WNW,294,2.0,4.0,81,0.00,,,0.00,weatherlink.com 1.10,2013-06-22 12:04:00,
2013-06-22 08:19:00,67.0,60.0,30.20,WNW,288,2.0,2.0,79,0.00,,,0.00,weatherlink.com 1.10,2013-06-22 12:19:00,
2013-06-22 08:34:00,68.8,62.0,30.20,WNW,288,0.0,3.0,79,0.00,,,0.00,weatherlink.com 1.10,2013-06-22 12:34:00,
2013-06-22 08:49:00,70.8,62.0,30.20,West,267,0.0,4.0,73,0.00,,,0.00,weatherlink.com 1.10,2013-06-22 12:49:00,
2013-06-22 09:04:00,72.7,63.0,30.20,West,275,0.0,2.0,72,0.00,,,0.00,weatherlink.com 1.10,2013-06-22 13:04:00,
2013-06-22 09:19:00,74.0,63.0,30.20,WSW,241,1.0,5.0,68,0.00,,,0.00,weatherlink.com 1.10,2013-06-22 13:19:00,
2013-06-22 09:34:00,75.2,64.0,30.20,WNW,299,0.0,5.0,69,0.00,,,0.00,weatherlink.com 1.10,2013-06-22 13:34:00,
2013-06-22 09:49:00,76.2,65.0,30.20,South,171,2.0,3.0,68,0.00,,,0.00,weatherlink.com 1.10,2013-06-22 13:49:00,
2013-06-22 10:04:00,77.0,65.0,30.20,SSW,209,0.0,3.0,66,0.00,,,0.00,weatherlink.com 1.10,2013-06-22 14:04:00,
2013-06-22 10:19:00,77.2,65.0,30.20,West,273,0.0,5.0,65,0.00,,,0.00,weatherlink.com 1.10,2013-06-22 14:19:00,
2013-06-22 10:34:00,77.8,66.0,30.20,SW,220,1.0,2.0,68,0.00,,,0.00,weatherlink.com 1.10,2013-06-22 14:34:00,
2013-06-22 10:49:00,78.7,65.0,30.19,West,269,0.0,6.0,64,0.00,,,0.00,weatherlink.com 1.10,2013-06-22 14:49:00,
2013-06-22 11:04:00,79.6,65.0,30.20,SSE,149,1.0,3.0,61,0.00,,,0.00,weatherlink.com 1.10,2013-06-22 15:04:00,
2013-06-22 11:19:00,79.8,64.0,30.19,WNW,297,0.0,7.0,59,0.00,,,0.00,weatherlink.com 1.10,2013-06-22 15:19:00,
2013-06-22 11:35:00,80.7,64.0,30.19,WNW,292,0.0,6.0,58,0.00,,,0.00,weatherlink.com 1.10,2013-06-22 15:35:00,
2013-06-22 11:50:00,81.6,65.0,30.19,NNW,333,0.0,3.0,58,0.00,,,0.00,weatherlink.com 1.10,2013-06-22 15:50:00,
2013-06-22 12:05:00,82.7,64.0,30.20,West,275,0.0,4.0,54,0.00,,,0.00,weatherlink.com 1.10,2013-06-22 16:05:00,
2013-06-22 12:20:00,83.3,64.0,30.20,NW,308,0.0,2.0,52,0.00,,,0.00,weatherlink.com 1.10,2013-06-22 16:20:00,
2013-06-22 12:35:00,83.8,63.0,30.20,WNW,295,1.0,3.0,49,0.00,,,0.00,weatherlink.com 1.10,2013-06-22 16:35:00,
2013-06-22 12:50:00,83.2,63.0,30.20,NW,317,0.0,5.0,50,0.00,,,0.00,weatherlink.com 1.10,2013-06-22 16:50:00,
2013-06-22 13:05:00,83.0,62.0,30.18,North,355,0.0,4.0,50,0.00,,,0.00,weatherlink.com 1.10,2013-06-22 17:05:00,
2013-06-22 13:20:00,83.1,62.0,30.18,SW,233,1.0,3.0,49,0.00,,,0.00,weatherlink.com 1.10,2013-06-22 17:20:00,
2013-06-22 13:35:00,82.5,64.0,30.17,South,188,1.0,4.0,53,0.00,,,0.00,weatherlink.com 1.10,2013-06-22 17:35:00,
2013-06-22 13:50:00,82.5,62.0,30.16,South,174,2.0,4.0,50,0.00,,,0.00,weatherlink.com 1.10,2013-06-22 17:50:00,
2013-06-22 14:05:00,83.1,63.0,30.15,ENE,75,1.0,3.0,51,0.00,,,0.00,weatherlink.com 1.10,2013-06-22 18:05:00,
2013-06-22 14:20:00,83.5,63.0,30.15,South,175,2.0,6.0,50,0.00,,,0.00,weatherlink.com 1.10,2013-06-22 18:20:00,
2013-06-22 14:35:00,83.5,63.0,30.15,WNW,284,0.0,4.0,50,0.00,,,0.00,weatherlink.com 1.10,2013-06-22 18:35:00,
2013-06-22 14:50:00,84.2,64.0,30.14,West,263,1.0,5.0,50,0.00,,,0.00,weatherlink.com 1.10,2013-06-22 18:50:00,
2013-06-22 15:05:00,84.4,63.0,30.14,NE,55,0.0,7.0,49,0.00,,,0.00,weatherlink.com 1.10,2013-06-22 19:05:00,
2013-06-22 15:20:00,84.8,64.0,30.14,West,260,0.0,4.0,50,0.00,,,0.00,weatherlink.com 1.10,2013-06-22 19:20:00,
2013-06-22 15:35:00,84.6,64.0,30.13,WSW,252,0.0,3.0,51,0.00,,,0.00,weatherlink.com 1.10,2013-06-22 19:35:00,
2013-06-22 15:50:00,84.2,66.0,30.12,South,186,0.0,4.0,54,0.00,,,0.00,weatherlink.com 1.10,2013-06-22 19:50:00,
2013-06-22 16:05:00,84.6,66.0,30.11,WNW,286,0.0,8.0,54,0.00,,,0.00,weatherlink.com 1.10,2013-06-22 20:05:00,
2013-06-22 16:20:00,84.7,66.0,30.10,WSW,254,1.0,4.0,53,0.00,,,0.00,weatherlink.com 1.10,2013-06-22 20:20:00,
2013-06-22 16:35:00,84.9,65.0,30.10,SSE,163,0.0,3.0,51,0.00,,,0.00,weatherlink.com 1.10,2013-06-22 20:35:00,
2013-06-22 16:50:00,85.2,66.0,30.09,West,275,0.0,4.0,53,0.00,,,0.00,weatherlink.com 1.10,2013-06-22 20:50:00,
2013-06-22 17:05:00,85.0,66.0,30.09,NNW,336,2.0,2.0,53,0.00,,,0.00,weatherlink.com 1.10,2013-06-22 21:05:00,
2013-06-22 17:20:00,85.4,66.0,30.09,WNW,298,0.0,3.0,53,0.00,,,0.00,weatherlink.com 1.10,2013-06-22 21:20:00,
2013-06-22 17:35:00,85.4,67.0,30.08,West,279,0.0,3.0,54,0.00,,,0.00,weatherlink.com 1.10,2013-06-22 21:35:00,
2013-06-22 17:50:00,85.2,66.0,30.08,SSW,194,1.0,2.0,52,0.00,,,0.00,weatherlink.com 1.10,2013-06-22 21:50:00,
2013-06-22 18:05:00,84.7,66.0,30.07,SW,225,0.0,3.0,54,0.00,,,0.00,weatherlink.com 1.10,2013-06-22 22:05:00,
2013-06-22 18:20:00,84.8,66.0,30.07,WNW,282,1.0,5.0,54,0.00,,,0.00,weatherlink.com 1.10,2013-06-22 22:20:00,
2013-06-22 18:35:00,84.4,66.0,30.06,SSE,150,0.0,3.0,54,0.00,,,0.00,weatherlink.com 1.10,2013-06-22 22:35:00,
2013-06-22 18:50:00,84.3,67.0,30.06,SSW,211,0.0,1.0,56,0.00,,,0.00,weatherlink.com 1.10,2013-06-22 22:50:00,
2013-06-22 19:05:00,83.7,66.0,30.06,South,175,0.0,2.0,55,0.00,,,0.00,weatherlink.com 1.10,2013-06-22 23:05:00,
2013-06-22 19:20:00,82.4,66.0,30.06,SSE,165,1.0,3.0,58,0.00,,,0.00,weatherlink.com 1.10,2013-06-22 23:20:00,
2013-06-22 19:35:00,80.2,65.0,30.07,SE,135,2.0,3.0,60,0.00,,,0.00,weatherlink.com 1.10,2013-06-22 23:35:00,
2013-06-22 19:51:00,78.6,63.0,30.07,SSE,160,1.0,3.0,60,0.00,,,0.00,weatherlink.com 1.10,2013-06-22 23:51:00,
2013-06-22 20:06:00,77.6,63.0,30.07,South,172,1.0,3.0,61,0.00,,,0.00,weatherlink.com 1.10,2013-06-23 00:06:00,
2013-06-22 20:21:00,76.8,62.0,30.08,South,189,0.0,3.0,61,0.00,,,0.00,weatherlink.com 1.10,2013-06-23 00:21:00,
2013-06-22 20:36:00,76.1,62.0,30.08,SSE,167,3.0,5.0,62,0.00,,,0.00,weatherlink.com 1.10,2013-06-23 00:36:00,
2013-06-22 20:51:00,75.7,62.0,30.08,South,181,0.0,4.0,62,0.00,,,0.00,weatherlink.com 1.10,2013-06-23 00:51:00,
2013-06-22 21:06:00,75.1,62.0,30.08,SE,145,0.0,4.0,63,0.00,,,0.00,weatherlink.com 1.10,2013-06-23 01:06:00,
2013-06-22 21:21:00,74.5,61.0,30.09,South,188,0.0,2.0,64,0.00,,,0.00,weatherlink.com 1.10,2013-06-23 01:21:00,
2013-06-22 21:36:00,73.9,62.0,30.09,South,169,0.0,3.0,66,0.00,,,0.00,weatherlink.com 1.10,2013-06-23 01:36:00,
2013-06-22 21:51:00,73.7,62.0,30.10,South,184,0.0,3.0,66,0.00,,,0.00,weatherlink.com 1.10,2013-06-23 01:51:00,
2013-06-22 22:06:00,73.1,61.0,30.11,SE,127,0.0,2.0,66,0.00,,,0.00,weatherlink.com 1.10,2013-06-23 02:06:00,
2013-06-22 22:21:00,72.5,61.0,30.11,South,170,0.0,2.0,68,0.00,,,0.00,weatherlink.com 1.10,2013-06-23 02:21:00,
2013-06-22 22:36:00,72.0,61.0,30.11,SSW,193,0.0,2.0,69,0.00,,,0.00,weatherlink.com 1.10,2013-06-23 02:36:00,
2013-06-22 22:51:00,71.5,61.0,30.11,SSE,165,0.0,3.0,70,0.00,,,0.00,weatherlink.com 1.10,2013-06-23 02:51:00,
2013-06-22 23:06:00,71.2,61.0,30.11,SSE,164,0.0,1.0,71,0.00,,,0.00,weatherlink.com 1.10,2013-06-23 03:06:00,
2013-06-22 23:21:00,70.8,61.0,30.12,SSE,164,0.0,1.0,72,0.00,,,0.00,weatherlink.com 1.10,2013-06-23 03:21:00,
2013-06-22 23:36:00,70.4,62.0,30.13,SSW,193,0.0,1.0,74,0.00,,,0.00,weatherlink.com 1.10,2013-06-23 03:36:00,
2013-06-22 23:51:00,70.0,62.0,30.12,SSW,193,0.0,0.0,75,0.00,,,0.00,weatherlink.com 1.10,2013-06-23 03:51:00,